Terminal Aerodrome Forecast
Issued by NWS

Home | Current Version | Previous Version | Text Only | Print | Product List | Glossary On
Versions: 1 2 3 4 5 6 7 8 9 10 11
768
FTUS46 KSTO 232321
TAFRDD
TAF
KRDD 232321Z 2400/2424 19007KT P6SM SCT250
     FM240700 21005KT P6SM -RA OVC050=

USA.gov is the U.S. government's official web portal to all federal, state and local government web resources and services.